sensor_id;sensor_type;location;lat;lon;timestamp;P1;durP1;ratioP1;P2;durP2;ratioP2
9222;SDS011;7557;51.698;3.942;2022-12-17T00:01:46;9.30;;;8.03;;
9222;SDS011;7557;51.698;3.942;2022-12-17T00:04:31;9.03;;;7.17;;
9222;SDS011;7557;51.698;3.942;2022-12-17T00:07:16;7.63;;;6.97;;
9222;SDS011;7557;51.698;3.942;2022-12-17T00:10:00;11.33;;;7.23;;
9222;SDS011;7557;51.698;3.942;2022-12-17T00:12:46;8.10;;;6.97;;
9222;SDS011;7557;51.698;3.942;2022-12-17T00:15:36;7.37;;;6.67;;
9222;SDS011;7557;51.698;3.942;2022-12-17T00:18:26;9.10;;;7.30;;
9222;SDS011;7557;51.698;3.942;2022-12-17T00:21:12;8.53;;;7.83;;
9222;SDS011;7557;51.698;3.942;2022-12-17T00:23:57;7.47;;;6.70;;
9222;SDS011;7557;51.698;3.942;2022-12-17T00:26:41;7.70;;;7.00;;
9222;SDS011;7557;51.698;3.942;2022-12-17T00:29:27;8.80;;;7.40;;
9222;SDS011;7557;51.698;3.942;2022-12-17T00:32:12;8.50;;;7.70;;
9222;SDS011;7557;51.698;3.942;2022-12-17T00:34:57;9.03;;;8.13;;
9222;SDS011;7557;51.698;3.942;2022-12-17T00:37:44;9.00;;;6.90;;
9222;SDS011;7557;51.698;3.942;2022-12-17T00:40:29;7.83;;;7.13;;
9222;SDS011;7557;51.698;3.942;2022-12-17T00:43:14;8.10;;;7.30;;
9222;SDS011;7557;51.698;3.942;2022-12-17T00:46:00;9.40;;;7.50;;
9222;SDS011;7557;51.698;3.942;2022-12-17T00:48:45;9.13;;;8.23;;
9222;SDS011;7557;51.698;3.942;2022-12-17T00:51:29;8.63;;;7.50;;
9222;SDS011;7557;51.698;3.942;2022-12-17T00:54:14;9.00;;;8.20;;
9222;SDS011;7557;51.698;3.942;2022-12-17T00:56:59;14.10;;;8.50;;
9222;SDS011;7557;51.698;3.942;2022-12-17T00:59:44;10.97;;;8.97;;
9222;SDS011;7557;51.698;3.942;2022-12-17T01:02:30;9.37;;;8.37;;
9222;SDS011;7557;51.698;3.942;2022-12-17T01:05:15;10.33;;;9.37;;
9222;SDS011;7557;51.698;3.942;2022-12-17T01:08:05;11.00;;;8.87;;
9222;SDS011;7557;51.698;3.942;2022-12-17T01:10:50;11.90;;;9.67;;
9222;SDS011;7557;51.698;3.942;2022-12-17T01:13:35;16.10;;;9.73;;
9222;SDS011;7557;51.698;3.942;2022-12-17T01:16:25;9.73;;;8.73;;
9222;SDS011;7557;51.698;3.942;2022-12-17T01:19:12;10.87;;;9.73;;
9222;SDS011;7557;51.698;3.942;2022-12-17T01:21:57;10.80;;;9.77;;
9222;SDS011;7557;51.698;3.942;2022-12-17T01:24:42;9.87;;;8.87;;
9222;SDS011;7557;51.698;3.942;2022-12-17T01:27:27;11.07;;;9.97;;
9222;SDS011;7557;51.698;3.942;2022-12-17T01:30:12;12.07;;;10.87;;
9222;SDS011;7557;51.698;3.942;2022-12-17T01:32:59;13.63;;;10.67;;
9222;SDS011;7557;51.698;3.942;2022-12-17T01:35:46;12.67;;;10.83;;
9222;SDS011;7557;51.698;3.942;2022-12-17T01:38:31;12.23;;;11.00;;
9222;SDS011;7557;51.698;3.942;2022-12-17T01:41:16;13.77;;;10.30;;
9222;SDS011;7557;51.698;3.942;2022-12-17T01:47:18;13.73;;;10.73;;
9222;SDS011;7557;51.698;3.942;2022-12-17T01:50:03;11.70;;;9.97;;
9222;SDS011;7557;51.698;3.942;2022-12-17T01:52:50;15.00;;;10.67;;
9222;SDS011;7557;51.698;3.942;2022-12-17T01:55:39;13.07;;;10.87;;
9222;SDS011;7557;51.698;3.942;2022-12-17T01:58:24;18.50;;;12.10;;
9222;SDS011;7557;51.698;3.942;2022-12-17T02:01:09;14.53;;;10.83;;
9222;SDS011;7557;51.698;3.942;2022-12-17T02:03:54;13.57;;;11.27;;
9222;SDS011;7557;51.698;3.942;2022-12-17T02:06:45;14.83;;;11.83;;
9222;SDS011;7557;51.698;3.942;2022-12-17T02:09:41;12.13;;;10.73;;
9222;SDS011;7557;51.698;3.942;2022-12-17T02:12:33;17.17;;;12.53;;
9222;SDS011;7557;51.698;3.942;2022-12-17T02:15:26;16.17;;;12.87;;
9222;SDS011;7557;51.698;3.942;2022-12-17T02:18:16;16.07;;;12.40;;
9222;SDS011;7557;51.698;3.942;2022-12-17T02:21:04;12.57;;;11.03;;
9222;SDS011;7557;51.698;3.942;2022-12-17T02:23:51;15.33;;;12.00;;
9222;SDS011;7557;51.698;3.942;2022-12-17T02:26:46;17.43;;;11.03;;
9222;SDS011;7557;51.698;3.942;2022-12-17T02:29:33;12.10;;;10.90;;
9222;SDS011;7557;51.698;3.942;2022-12-17T02:32:21;15.00;;;11.00;;
9222;SDS011;7557;51.698;3.942;2022-12-17T02:35:11;14.97;;;11.17;;
9222;SDS011;7557;51.698;3.942;2022-12-17T02:37:57;13.20;;;11.40;;
9222;SDS011;7557;51.698;3.942;2022-12-17T02:40:42;14.93;;;11.13;;
9222;SDS011;7557;51.698;3.942;2022-12-17T02:43:32;14.23;;;11.27;;
9222;SDS011;7557;51.698;3.942;2022-12-17T02:46:18;14.40;;;11.50;;
9222;SDS011;7557;51.698;3.942;2022-12-17T02:49:04;13.40;;;11.00;;
9222;SDS011;7557;51.698;3.942;2022-12-17T02:51:49;16.07;;;11.37;;
9222;SDS011;7557;51.698;3.942;2022-12-17T02:54:33;14.47;;;12.13;;
9222;SDS011;7557;51.698;3.942;2022-12-17T02:57:18;16.63;;;11.07;;
9222;SDS011;7557;51.698;3.942;2022-12-17T03:00:05;11.77;;;10.60;;
9222;SDS011;7557;51.698;3.942;2022-12-17T03:02:51;13.47;;;11.87;;
9222;SDS011;7557;51.698;3.942;2022-12-17T03:05:36;12.57;;;10.47;;
9222;SDS011;7557;51.698;3.942;2022-12-17T03:08:20;14.67;;;11.40;;
9222;SDS011;7557;51.698;3.942;2022-12-17T03:11:05;13.50;;;10.67;;
9222;SDS011;7557;51.698;3.942;2022-12-17T03:13:50;14.60;;;10.27;;
9222;SDS011;7557;51.698;3.942;2022-12-17T03:16:37;12.80;;;10.40;;
9222;SDS011;7557;51.698;3.942;2022-12-17T03:19:21;14.23;;;10.07;;
9222;SDS011;7557;51.698;3.942;2022-12-17T03:22:02;13.40;;;10.07;;
9222;SDS011;7557;51.698;3.942;2022-12-17T03:24:47;12.53;;;10.60;;
9222;SDS011;7557;51.698;3.942;2022-12-17T03:27:32;11.50;;;9.40;;
9222;SDS011;7557;51.698;3.942;2022-12-17T03:30:17;10.30;;;9.40;;
9222;SDS011;7557;51.698;3.942;2022-12-17T03:33:03;15.70;;;9.80;;
9222;SDS011;7557;51.698;3.942;2022-12-17T03:35:51;13.67;;;10.97;;
9222;SDS011;7557;51.698;3.942;2022-12-17T03:38:36;12.77;;;11.17;;
9222;SDS011;7557;51.698;3.942;2022-12-17T03:41:21;15.73;;;9.97;;
9222;SDS011;7557;51.698;3.942;2022-12-17T03:44:06;14.77;;;10.03;;
9222;SDS011;7557;51.698;3.942;2022-12-17T03:46:50;14.67;;;10.87;;
9222;SDS011;7557;51.698;3.942;2022-12-17T03:49:36;14.27;;;10.37;;
9222;SDS011;7557;51.698;3.942;2022-12-17T03:52:21;11.60;;;9.73;;
9222;SDS011;7557;51.698;3.942;2022-12-17T03:55:06;12.83;;;10.17;;
9222;SDS011;7557;51.698;3.942;2022-12-17T03:57:51;13.57;;;10.37;;
9222;SDS011;7557;51.698;3.942;2022-12-17T04:00:36;10.83;;;9.73;;
9222;SDS011;7557;51.698;3.942;2022-12-17T04:03:21;12.20;;;8.77;;
9222;SDS011;7557;51.698;3.942;2022-12-17T04:06:07;15.07;;;9.70;;
9222;SDS011;7557;51.698;3.942;2022-12-17T04:08:51;13.77;;;9.60;;
9222;SDS011;7557;51.698;3.942;2022-12-17T04:11:36;13.03;;;9.97;;
9222;SDS011;7557;51.698;3.942;2022-12-17T04:14:21;10.97;;;9.73;;
9222;SDS011;7557;51.698;3.942;2022-12-17T04:17:06;11.70;;;10.50;;
9222;SDS011;7557;51.698;3.942;2022-12-17T04:19:50;13.90;;;9.67;;
9222;SDS011;7557;51.698;3.942;2022-12-17T04:22:37;13.93;;;11.00;;
9222;SDS011;7557;51.698;3.942;2022-12-17T04:25:22;15.70;;;10.37;;
9222;SDS011;7557;51.698;3.942;2022-12-17T04:28:06;13.10;;;9.40;;
9222;SDS011;7557;51.698;3.942;2022-12-17T04:30:51;10.07;;;8.77;;
9222;SDS011;7557;51.698;3.942;2022-12-17T04:33:36;13.33;;;10.43;;
9222;SDS011;7557;51.698;3.942;2022-12-17T04:36:20;11.53;;;10.27;;
9222;SDS011;7557;51.698;3.942;2022-12-17T04:39:06;10.97;;;9.57;;
9222;SDS011;7557;51.698;3.942;2022-12-17T04:41:51;14.50;;;10.10;;
9222;SDS011;7557;51.698;3.942;2022-12-17T04:44:36;12.00;;;9.43;;
9222;SDS011;7557;51.698;3.942;2022-12-17T04:47:21;15.90;;;11.10;;
9222;SDS011;7557;51.698;3.942;2022-12-17T04:50:06;12.40;;;10.80;;
9222;SDS011;7557;51.698;3.942;2022-12-17T04:52:57;15.57;;;11.17;;
9222;SDS011;7557;51.698;3.942;2022-12-17T04:55:44;17.93;;;11.33;;
9222;SDS011;7557;51.698;3.942;2022-12-17T04:58:29;13.97;;;11.70;;
9222;SDS011;7557;51.698;3.942;2022-12-17T05:01:14;12.83;;;10.53;;
9222;SDS011;7557;51.698;3.942;2022-12-17T05:03:58;16.03;;;12.13;;
9222;SDS011;7557;51.698;3.942;2022-12-17T05:06:43;13.53;;;11.33;;
9222;SDS011;7557;51.698;3.942;2022-12-17T05:09:28;18.70;;;13.93;;
9222;SDS011;7557;51.698;3.942;2022-12-17T05:12:14;15.73;;;12.73;;
9222;SDS011;7557;51.698;3.942;2022-12-17T05:14:59;14.10;;;11.60;;
9222;SDS011;7557;51.698;3.942;2022-12-17T05:17:44;17.97;;;12.03;;
9222;SDS011;7557;51.698;3.942;2022-12-17T05:20:29;14.07;;;11.43;;
9222;SDS011;7557;51.698;3.942;2022-12-17T05:23:12;14.50;;;12.13;;
9222;SDS011;7557;51.698;3.942;2022-12-17T05:25:58;16.93;;;12.00;;
9222;SDS011;7557;51.698;3.942;2022-12-17T05:28:48;16.10;;;13.23;;
9222;SDS011;7557;51.698;3.942;2022-12-17T05:31:32;15.67;;;13.00;;
9222;SDS011;7557;51.698;3.942;2022-12-17T05:34:17;16.67;;;12.97;;
9222;SDS011;7557;51.698;3.942;2022-12-17T05:37:01;17.30;;;13.57;;
9222;SDS011;7557;51.698;3.942;2022-12-17T05:39:46;17.87;;;14.03;;
9222;SDS011;7557;51.698;3.942;2022-12-17T05:42:31;16.83;;;14.73;;
9222;SDS011;7557;51.698;3.942;2022-12-17T05:45:17;19.27;;;14.47;;
9222;SDS011;7557;51.698;3.942;2022-12-17T05:48:02;17.50;;;15.60;;
9222;SDS011;7557;51.698;3.942;2022-12-17T05:50:48;18.50;;;15.90;;
9222;SDS011;7557;51.698;3.942;2022-12-17T05:53:35;20.07;;;15.67;;
9222;SDS011;7557;51.698;3.942;2022-12-17T05:56:20;21.13;;;16.27;;
9222;SDS011;7557;51.698;3.942;2022-12-17T05:59:05;20.87;;;16.07;;
9222;SDS011;7557;51.698;3.942;2022-12-17T06:01:51;20.63;;;17.43;;
9222;SDS011;7557;51.698;3.942;2022-12-17T06:04:35;23.10;;;17.47;;
9222;SDS011;7557;51.698;3.942;2022-12-17T06:07:20;22.67;;;17.87;;
9222;SDS011;7557;51.698;3.942;2022-12-17T06:10:05;24.83;;;19.70;;
9222;SDS011;7557;51.698;3.942;2022-12-17T06:12:53;23.30;;;18.60;;
9222;SDS011;7557;51.698;3.942;2022-12-17T06:15:38;23.90;;;19.73;;
9222;SDS011;7557;51.698;3.942;2022-12-17T06:18:24;23.53;;;18.50;;
9222;SDS011;7557;51.698;3.942;2022-12-17T06:21:08;24.73;;;19.03;;
9222;SDS011;7557;51.698;3.942;2022-12-17T06:23:53;26.20;;;20.17;;
9222;SDS011;7557;51.698;3.942;2022-12-17T06:26:43;29.53;;;21.03;;
9222;SDS011;7557;51.698;3.942;2022-12-17T06:29:28;24.80;;;19.87;;
9222;SDS011;7557;51.698;3.942;2022-12-17T06:32:13;27.17;;;19.43;;
9222;SDS011;7557;51.698;3.942;2022-12-17T06:34:59;26.57;;;20.00;;
9222;SDS011;7557;51.698;3.942;2022-12-17T06:37:43;27.60;;;19.17;;
9222;SDS011;7557;51.698;3.942;2022-12-17T06:40:28;24.73;;;20.40;;
9222;SDS011;7557;51.698;3.942;2022-12-17T06:43:12;25.13;;;20.47;;
9222;SDS011;7557;51.698;3.942;2022-12-17T06:45:57;28.73;;;19.80;;
9222;SDS011;7557;51.698;3.942;2022-12-17T06:48:42;28.13;;;20.30;;
9222;SDS011;7557;51.698;3.942;2022-12-17T06:51:28;29.57;;;21.47;;
9222;SDS011;7557;51.698;3.942;2022-12-17T06:54:13;27.77;;;20.53;;
9222;SDS011;7557;51.698;3.942;2022-12-17T06:56:58;31.03;;;21.47;;
9222;SDS011;7557;51.698;3.942;2022-12-17T06:59:43;25.90;;;20.57;;
9222;SDS011;7557;51.698;3.942;2022-12-17T07:02:28;30.97;;;20.43;;
9222;SDS011;7557;51.698;3.942;2022-12-17T07:05:12;26.53;;;21.23;;
9222;SDS011;7557;51.698;3.942;2022-12-17T07:07:59;29.47;;;21.57;;
9222;SDS011;7557;51.698;3.942;2022-12-17T07:10:43;29.67;;;20.57;;
9222;SDS011;7557;51.698;3.942;2022-12-17T07:13:28;28.53;;;22.80;;
9222;SDS011;7557;51.698;3.942;2022-12-17T07:16:13;27.47;;;20.43;;
9222;SDS011;7557;51.698;3.942;2022-12-17T07:18:58;29.93;;;22.87;;
9222;SDS011;7557;51.698;3.942;2022-12-17T07:21:42;30.93;;;21.07;;
9222;SDS011;7557;51.698;3.942;2022-12-17T07:24:29;26.83;;;21.27;;
9222;SDS011;7557;51.698;3.942;2022-12-17T07:27:13;30.63;;;23.00;;
9222;SDS011;7557;51.698;3.942;2022-12-17T07:29:58;28.40;;;21.77;;
9222;SDS011;7557;51.698;3.942;2022-12-17T07:32:43;27.27;;;21.63;;
9222;SDS011;7557;51.698;3.942;2022-12-17T07:35:27;32.37;;;22.37;;
9222;SDS011;7557;51.698;3.942;2022-12-17T07:38:12;30.40;;;21.37;;
9222;SDS011;7557;51.698;3.942;2022-12-17T07:40:58;26.93;;;20.63;;
9222;SDS011;7557;51.698;3.942;2022-12-17T07:43:43;27.07;;;20.27;;
9222;SDS011;7557;51.698;3.942;2022-12-17T07:46:28;26.30;;;19.47;;
9222;SDS011;7557;51.698;3.942;2022-12-17T07:49:12;28.80;;;20.27;;
9222;SDS011;7557;51.698;3.942;2022-12-17T07:51:57;24.40;;;18.80;;
9222;SDS011;7557;51.698;3.942;2022-12-17T07:54:41;24.83;;;18.80;;
9222;SDS011;7557;51.698;3.942;2022-12-17T07:57:28;22.73;;;18.23;;
9222;SDS011;7557;51.698;3.942;2022-12-17T08:00:13;23.63;;;19.07;;
9222;SDS011;7557;51.698;3.942;2022-12-17T08:02:59;27.33;;;19.33;;
9222;SDS011;7557;51.698;3.942;2022-12-17T08:05:44;26.00;;;18.83;;
9222;SDS011;7557;51.698;3.942;2022-12-17T08:08:28;23.63;;;19.23;;
9222;SDS011;7557;51.698;3.942;2022-12-17T08:11:13;27.40;;;19.50;;
9222;SDS011;7557;51.698;3.942;2022-12-17T08:13:59;30.83;;;19.07;;
9222;SDS011;7557;51.698;3.942;2022-12-17T08:16:44;24.17;;;18.40;;
9222;SDS011;7557;51.698;3.942;2022-12-17T08:19:29;27.40;;;18.77;;
9222;SDS011;7557;51.698;3.942;2022-12-17T08:22:14;21.63;;;17.97;;
9222;SDS011;7557;51.698;3.942;2022-12-17T08:24:59;21.17;;;17.57;;
9222;SDS011;7557;51.698;3.942;2022-12-17T08:27:44;21.57;;;17.03;;
9222;SDS011;7557;51.698;3.942;2022-12-17T08:30:30;25.07;;;16.67;;
9222;SDS011;7557;51.698;3.942;2022-12-17T08:33:15;27.30;;;17.83;;
9222;SDS011;7557;51.698;3.942;2022-12-17T08:35:59;28.67;;;18.27;;
9222;SDS011;7557;51.698;3.942;2022-12-17T08:38:44;20.87;;;17.30;;
9222;SDS011;7557;51.698;3.942;2022-12-17T08:41:29;21.77;;;16.17;;
9222;SDS011;7557;51.698;3.942;2022-12-17T08:44:14;24.57;;;16.17;;
9222;SDS011;7557;51.698;3.942;2022-12-17T08:47:00;22.90;;;17.87;;
9222;SDS011;7557;51.698;3.942;2022-12-17T08:49:45;24.80;;;17.50;;
9222;SDS011;7557;51.698;3.942;2022-12-17T08:52:30;22.73;;;16.60;;
9222;SDS011;7557;51.698;3.942;2022-12-17T08:55:14;23.33;;;16.60;;
9222;SDS011;7557;51.698;3.942;2022-12-17T08:57:59;22.57;;;16.50;;
9222;SDS011;7557;51.698;3.942;2022-12-17T09:00:44;23.97;;;16.30;;
9222;SDS011;7557;51.698;3.942;2022-12-17T09:03:30;20.63;;;16.87;;
9222;SDS011;7557;51.698;3.942;2022-12-17T09:06:15;20.30;;;16.13;;
9222;SDS011;7557;51.698;3.942;2022-12-17T09:09:00;21.80;;;15.93;;
9222;SDS011;7557;51.698;3.942;2022-12-17T09:11:44;23.57;;;15.63;;
9222;SDS011;7557;51.698;3.942;2022-12-17T09:14:29;21.90;;;15.93;;
9222;SDS011;7557;51.698;3.942;2022-12-17T09:17:13;18.87;;;14.23;;
9222;SDS011;7557;51.698;3.942;2022-12-17T09:20:00;20.27;;;16.63;;
9222;SDS011;7557;51.698;3.942;2022-12-17T09:22:45;16.83;;;14.70;;
9222;SDS011;7557;51.698;3.942;2022-12-17T09:25:29;20.27;;;15.33;;
9222;SDS011;7557;51.698;3.942;2022-12-17T09:28:14;17.73;;;14.73;;
9222;SDS011;7557;51.698;3.942;2022-12-17T09:30:59;20.87;;;15.87;;
9222;SDS011;7557;51.698;3.942;2022-12-17T09:33:44;19.53;;;15.10;;
9222;SDS011;7557;51.698;3.942;2022-12-17T09:36:31;18.93;;;15.00;;
9222;SDS011;7557;51.698;3.942;2022-12-17T09:39:15;20.00;;;16.03;;
9222;SDS011;7557;51.698;3.942;2022-12-17T09:42:01;19.73;;;15.87;;
9222;SDS011;7557;51.698;3.942;2022-12-17T09:44:59;20.37;;;15.47;;
9222;SDS011;7557;51.698;3.942;2022-12-17T09:47:49;17.97;;;15.27;;
9222;SDS011;7557;51.698;3.942;2022-12-17T09:50:38;21.37;;;16.60;;
9222;SDS011;7557;51.698;3.942;2022-12-17T09:53:26;26.70;;;16.00;;
9222;SDS011;7557;51.698;3.942;2022-12-17T09:56:17;18.70;;;16.17;;
9222;SDS011;7557;51.698;3.942;2022-12-17T09:59:06;22.77;;;17.67;;
9222;SDS011;7557;51.698;3.942;2022-12-17T10:01:54;18.70;;;16.37;;
9222;SDS011;7557;51.698;3.942;2022-12-17T10:04:39;24.83;;;18.77;;
9222;SDS011;7557;51.698;3.942;2022-12-17T10:07:27;33.93;;;19.27;;
9222;SDS011;7557;51.698;3.942;2022-12-17T10:10:19;25.10;;;19.10;;
9222;SDS011;7557;51.698;3.942;2022-12-17T10:13:07;21.27;;;18.10;;
9222;SDS011;7557;51.698;3.942;2022-12-17T10:15:54;23.97;;;18.20;;
9222;SDS011;7557;51.698;3.942;2022-12-17T10:18:39;21.77;;;17.70;;
9222;SDS011;7557;51.698;3.942;2022-12-17T10:21:25;22.53;;;18.60;;
9222;SDS011;7557;51.698;3.942;2022-12-17T10:24:10;19.30;;;17.23;;
9222;SDS011;7557;51.698;3.942;2022-12-17T10:26:56;24.10;;;18.30;;
9222;SDS011;7557;51.698;3.942;2022-12-17T10:29:41;17.60;;;15.27;;
9222;SDS011;7557;51.698;3.942;2022-12-17T10:32:27;23.90;;;16.37;;
9222;SDS011;7557;51.698;3.942;2022-12-17T10:35:15;18.97;;;15.97;;
9222;SDS011;7557;51.698;3.942;2022-12-17T10:38:08;19.13;;;15.93;;
9222;SDS011;7557;51.698;3.942;2022-12-17T10:40:54;20.60;;;16.10;;
9222;SDS011;7557;51.698;3.942;2022-12-17T10:43:41;19.40;;;16.23;;
9222;SDS011;7557;51.698;3.942;2022-12-17T10:46:26;23.23;;;18.03;;
9222;SDS011;7557;51.698;3.942;2022-12-17T10:49:13;21.40;;;16.37;;
9222;SDS011;7557;51.698;3.942;2022-12-17T10:52:00;23.00;;;16.97;;
9222;SDS011;7557;51.698;3.942;2022-12-17T10:54:54;21.40;;;16.97;;
9222;SDS011;7557;51.698;3.942;2022-12-17T10:57:41;21.47;;;16.53;;
9222;SDS011;7557;51.698;3.942;2022-12-17T11:00:29;20.13;;;16.07;;
9222;SDS011;7557;51.698;3.942;2022-12-17T11:03:22;20.07;;;17.03;;
9222;SDS011;7557;51.698;3.942;2022-12-17T11:06:18;19.60;;;16.33;;
9222;SDS011;7557;51.698;3.942;2022-12-17T11:09:08;18.93;;;16.33;;
9222;SDS011;7557;51.698;3.942;2022-12-17T11:11:59;20.13;;;17.07;;
9222;SDS011;7557;51.698;3.942;2022-12-17T11:14:46;24.33;;;15.97;;
9222;SDS011;7557;51.698;3.942;2022-12-17T11:17:36;20.87;;;15.70;;
9222;SDS011;7557;51.698;3.942;2022-12-17T11:20:24;20.37;;;16.80;;
9222;SDS011;7557;51.698;3.942;2022-12-17T11:23:16;21.07;;;16.50;;
9222;SDS011;7557;51.698;3.942;2022-12-17T11:26:03;22.00;;;16.70;;
9222;SDS011;7557;51.698;3.942;2022-12-17T11:28:51;19.83;;;15.87;;
9222;SDS011;7557;51.698;3.942;2022-12-17T11:31:42;22.50;;;16.37;;
9222;SDS011;7557;51.698;3.942;2022-12-17T11:34:39;22.67;;;16.80;;
9222;SDS011;7557;51.698;3.942;2022-12-17T11:37:37;21.13;;;16.07;;
9222;SDS011;7557;51.698;3.942;2022-12-17T11:40:30;19.10;;;16.63;;
9222;SDS011;7557;51.698;3.942;2022-12-17T11:43:23;21.33;;;16.07;;
9222;SDS011;7557;51.698;3.942;2022-12-17T11:46:25;22.47;;;16.80;;
9222;SDS011;7557;51.698;3.942;2022-12-17T11:49:17;21.37;;;15.83;;
9222;SDS011;7557;51.698;3.942;2022-12-17T11:52:12;19.27;;;15.53;;
9222;SDS011;7557;51.698;3.942;2022-12-17T11:55:05;25.13;;;17.73;;
9222;SDS011;7557;51.698;3.942;2022-12-17T11:58:01;23.13;;;18.03;;
9222;SDS011;7557;51.698;3.942;2022-12-17T12:00:49;20.10;;;16.70;;
9222;SDS011;7557;51.698;3.942;2022-12-17T12:03:45;20.20;;;18.00;;
9222;SDS011;7557;51.698;3.942;2022-12-17T12:06:39;23.43;;;18.10;;
9222;SDS011;7557;51.698;3.942;2022-12-17T12:09:34;23.83;;;17.33;;
9222;SDS011;7557;51.698;3.942;2022-12-17T12:12:30;22.47;;;17.13;;
9222;SDS011;7557;51.698;3.942;2022-12-17T12:15:25;20.10;;;16.73;;
9222;SDS011;7557;51.698;3.942;2022-12-17T12:18:18;23.17;;;19.93;;
9222;SDS011;7557;51.698;3.942;2022-12-17T12:21:16;28.73;;;18.20;;
9222;SDS011;7557;51.698;3.942;2022-12-17T12:24:17;22.63;;;18.30;;
9222;SDS011;7557;51.698;3.942;2022-12-17T12:27:14;25.27;;;18.83;;
9222;SDS011;7557;51.698;3.942;2022-12-17T12:30:08;24.63;;;18.97;;
9222;SDS011;7557;51.698;3.942;2022-12-17T12:32:58;25.80;;;20.80;;
9222;SDS011;7557;51.698;3.942;2022-12-17T12:35:49;27.03;;;19.33;;
9222;SDS011;7557;51.698;3.942;2022-12-17T12:38:39;29.90;;;21.20;;
9222;SDS011;7557;51.698;3.942;2022-12-17T12:41:32;27.93;;;20.73;;
9222;SDS011;7557;51.698;3.942;2022-12-17T12:44:27;28.17;;;20.53;;
9222;SDS011;7557;51.698;3.942;2022-12-17T12:47:19;29.50;;;21.07;;
9222;SDS011;7557;51.698;3.942;2022-12-17T12:50:10;30.33;;;22.40;;
9222;SDS011;7557;51.698;3.942;2022-12-17T12:52:58;29.57;;;21.97;;
9222;SDS011;7557;51.698;3.942;2022-12-17T12:55:43;28.63;;;21.93;;
9222;SDS011;7557;51.698;3.942;2022-12-17T12:58:29;32.00;;;23.00;;
9222;SDS011;7557;51.698;3.942;2022-12-17T13:01:16;33.00;;;23.63;;
9222;SDS011;7557;51.698;3.942;2022-12-17T13:04:13;34.03;;;22.80;;
9222;SDS011;7557;51.698;3.942;2022-12-17T13:07:22;31.63;;;22.13;;
9222;SDS011;7557;51.698;3.942;2022-12-17T13:09:52;32.43;;;23.43;;
9222;SDS011;7557;51.698;3.942;2022-12-17T13:12:23;30.70;;;22.07;;
9222;SDS011;7557;51.698;3.942;2022-12-17T13:15:13;31.20;;;23.27;;
9222;SDS011;7557;51.698;3.942;2022-12-17T13:17:53;32.63;;;22.73;;
9222;SDS011;7557;51.698;3.942;2022-12-17T13:20:24;29.57;;;22.87;;
9222;SDS011;7557;51.698;3.942;2022-12-17T13:23:05;36.27;;;24.47;;
9222;SDS011;7557;51.698;3.942;2022-12-17T13:25:41;33.13;;;24.40;;
9222;SDS011;7557;51.698;3.942;2022-12-17T13:28:24;34.17;;;24.33;;
9222;SDS011;7557;51.698;3.942;2022-12-17T13:30:59;39.50;;;25.13;;
9222;SDS011;7557;51.698;3.942;2022-12-17T13:33:31;46.87;;;26.77;;
9222;SDS011;7557;51.698;3.942;2022-12-17T13:36:06;32.63;;;24.57;;
9222;SDS011;7557;51.698;3.942;2022-12-17T13:38:43;38.17;;;27.07;;
9222;SDS011;7557;51.698;3.942;2022-12-17T13:41:16;33.43;;;25.80;;
9222;SDS011;7557;51.698;3.942;2022-12-17T13:43:47;38.20;;;26.90;;
9222;SDS011;7557;51.698;3.942;2022-12-17T13:46:17;34.43;;;25.47;;
9222;SDS011;7557;51.698;3.942;2022-12-17T13:48:54;34.70;;;26.23;;
9222;SDS011;7557;51.698;3.942;2022-12-17T13:51:23;35.40;;;25.77;;
9222;SDS011;7557;51.698;3.942;2022-12-17T13:53:53;40.20;;;27.13;;
9222;SDS011;7557;51.698;3.942;2022-12-17T13:56:22;35.03;;;25.93;;
9222;SDS011;7557;51.698;3.942;2022-12-17T13:58:55;35.23;;;27.30;;
9222;SDS011;7557;51.698;3.942;2022-12-17T14:01:24;35.73;;;25.90;;
9222;SDS011;7557;51.698;3.942;2022-12-17T14:03:52;33.30;;;25.63;;
9222;SDS011;7557;51.698;3.942;2022-12-17T14:06:22;36.47;;;26.27;;
9222;SDS011;7557;51.698;3.942;2022-12-17T14:08:53;35.53;;;25.87;;
9222;SDS011;7557;51.698;3.942;2022-12-17T14:11:23;41.67;;;28.57;;
9222;SDS011;7557;51.698;3.942;2022-12-17T14:14:10;34.87;;;27.20;;
9222;SDS011;7557;51.698;3.942;2022-12-17T14:16:45;32.80;;;26.40;;
9222;SDS011;7557;51.698;3.942;2022-12-17T14:19:14;36.53;;;27.40;;
9222;SDS011;7557;51.698;3.942;2022-12-17T14:21:42;35.67;;;26.70;;
9222;SDS011;7557;51.698;3.942;2022-12-17T14:24:10;32.30;;;26.00;;
9222;SDS011;7557;51.698;3.942;2022-12-17T14:26:48;37.23;;;27.27;;
9222;SDS011;7557;51.698;3.942;2022-12-17T14:29:20;34.57;;;24.73;;
9222;SDS011;7557;51.698;3.942;2022-12-17T14:31:52;40.27;;;27.90;;
9222;SDS011;7557;51.698;3.942;2022-12-17T14:34:23;39.67;;;27.40;;
9222;SDS011;7557;51.698;3.942;2022-12-17T14:36:54;38.07;;;27.77;;
9222;SDS011;7557;51.698;3.942;2022-12-17T14:39:23;37.37;;;27.73;;
9222;SDS011;7557;51.698;3.942;2022-12-17T14:41:53;36.07;;;26.27;;
9222;SDS011;7557;51.698;3.942;2022-12-17T14:44:47;35.13;;;27.87;;
9222;SDS011;7557;51.698;3.942;2022-12-17T14:47:17;33.87;;;27.60;;
9222;SDS011;7557;51.698;3.942;2022-12-17T14:50:02;37.40;;;27.30;;
9222;SDS011;7557;51.698;3.942;2022-12-17T14:52:41;34.50;;;26.73;;
9222;SDS011;7557;51.698;3.942;2022-12-17T14:55:23;38.33;;;26.97;;
9222;SDS011;7557;51.698;3.942;2022-12-17T14:57:53;39.33;;;28.10;;
9222;SDS011;7557;51.698;3.942;2022-12-17T15:00:32;35.50;;;27.10;;
9222;SDS011;7557;51.698;3.942;2022-12-17T15:03:00;37.87;;;28.30;;
9222;SDS011;7557;51.698;3.942;2022-12-17T15:05:29;33.13;;;25.47;;
9222;SDS011;7557;51.698;3.942;2022-12-17T15:08:00;35.07;;;27.47;;
9222;SDS011;7557;51.698;3.942;2022-12-17T15:10:27;33.20;;;26.10;;
9222;SDS011;7557;51.698;3.942;2022-12-17T15:12:55;31.10;;;25.13;;
9222;SDS011;7557;51.698;3.942;2022-12-17T15:15:23;33.10;;;25.63;;
9222;SDS011;7557;51.698;3.942;2022-12-17T15:17:50;35.83;;;27.47;;
9222;SDS011;7557;51.698;3.942;2022-12-17T15:20:18;31.90;;;25.43;;
9222;SDS011;7557;51.698;3.942;2022-12-17T15:22:48;33.17;;;25.20;;
9222;SDS011;7557;51.698;3.942;2022-12-17T15:25:17;35.03;;;25.63;;
9222;SDS011;7557;51.698;3.942;2022-12-17T15:27:45;35.63;;;27.27;;
9222;SDS011;7557;51.698;3.942;2022-12-17T15:30:13;37.67;;;26.57;;
9222;SDS011;7557;51.698;3.942;2022-12-17T15:32:42;35.67;;;26.50;;
9222;SDS011;7557;51.698;3.942;2022-12-17T15:35:10;38.97;;;26.73;;
9222;SDS011;7557;51.698;3.942;2022-12-17T15:37:39;33.93;;;26.47;;
9222;SDS011;7557;51.698;3.942;2022-12-17T15:40:09;38.03;;;27.60;;
9222;SDS011;7557;51.698;3.942;2022-12-17T15:42:37;35.43;;;26.40;;
9222;SDS011;7557;51.698;3.942;2022-12-17T15:45:23;33.30;;;26.20;;
9222;SDS011;7557;51.698;3.942;2022-12-17T15:47:54;35.60;;;27.47;;
9222;SDS011;7557;51.698;3.942;2022-12-17T15:50:22;36.97;;;26.73;;
9222;SDS011;7557;51.698;3.942;2022-12-17T15:52:50;36.30;;;26.93;;
9222;SDS011;7557;51.698;3.942;2022-12-17T15:55:19;38.90;;;27.53;;
9222;SDS011;7557;51.698;3.942;2022-12-17T15:57:46;36.97;;;27.20;;
9222;SDS011;7557;51.698;3.942;2022-12-17T16:00:14;37.43;;;27.20;;
9222;SDS011;7557;51.698;3.942;2022-12-17T16:02:42;35.50;;;26.13;;
9222;SDS011;7557;51.698;3.942;2022-12-17T16:05:10;38.47;;;26.70;;
9222;SDS011;7557;51.698;3.942;2022-12-17T16:07:38;38.07;;;26.90;;
9222;SDS011;7557;51.698;3.942;2022-12-17T16:10:08;33.50;;;25.57;;
9222;SDS011;7557;51.698;3.942;2022-12-17T16:12:37;38.87;;;28.47;;
9222;SDS011;7557;51.698;3.942;2022-12-17T16:15:05;33.80;;;25.27;;
9222;SDS011;7557;51.698;3.942;2022-12-17T16:17:34;39.10;;;28.60;;
9222;SDS011;7557;51.698;3.942;2022-12-17T16:20:01;35.57;;;26.17;;
9222;SDS011;7557;51.698;3.942;2022-12-17T16:22:30;39.10;;;27.30;;
9222;SDS011;7557;51.698;3.942;2022-12-17T16:24:57;38.27;;;27.00;;
9222;SDS011;7557;51.698;3.942;2022-12-17T16:27:25;40.00;;;28.90;;
9222;SDS011;7557;51.698;3.942;2022-12-17T16:29:54;37.73;;;26.73;;
9222;SDS011;7557;51.698;3.942;2022-12-17T16:32:21;38.77;;;27.97;;